sensor_id;sensor_type;location;lat;lon;timestamp;pressure;altitude;pressure_sealevel;temperature;humidity
62928;BME280;51070;52.236;-0.892;2022-09-27T00:00:21;99534.13;;;10.76;71.48
62928;BME280;51070;52.236;-0.892;2022-09-27T00:02:46;99534.11;;;10.72;71.84
62928;BME280;51070;52.236;-0.892;2022-09-27T00:05:12;99528.83;;;10.66;72.36
62928;BME280;51070;52.236;-0.892;2022-09-27T00:07:37;99511.60;;;10.57;72.71
62928;BME280;51070;52.236;-0.892;2022-09-27T00:10:04;99511.51;;;10.48;72.75
62928;BME280;51070;52.236;-0.892;2022-09-27T00:12:29;99514.38;;;10.43;73.05
62928;BME280;51070;52.236;-0.892;2022-09-27T00:14:55;99508.80;;;10.40;73.29
62928;BME280;51070;52.236;-0.892;2022-09-27T00:17:21;99508.58;;;10.37;73.51
62928;BME280;51070;52.236;-0.892;2022-09-27T00:19:46;99510.27;;;10.34;73.33
62928;BME280;51070;52.236;-0.892;2022-09-27T00:22:12;99510.23;;;10.31;73.47
62928;BME280;51070;52.236;-0.892;2022-09-27T00:24:37;99512.27;;;10.29;73.42
62928;BME280;51070;52.236;-0.892;2022-09-27T00:27:03;99512.58;;;10.26;73.55
62928;BME280;51070;52.236;-0.892;2022-09-27T00:29:28;99513.55;;;10.23;73.59
62928;BME280;51070;52.236;-0.892;2022-09-27T00:31:53;99518.66;;;10.18;73.65
62928;BME280;51070;52.236;-0.892;2022-09-27T00:34:22;99524.23;;;10.12;73.86
62928;BME280;51070;52.236;-0.892;2022-09-27T00:36:50;99527.27;;;10.07;74.01
62928;BME280;51070;52.236;-0.892;2022-09-27T00:39:16;99535.83;;;10.01;74.01
62928;BME280;51070;52.236;-0.892;2022-09-27T00:41:42;99538.69;;;9.97;74.06
62928;BME280;51070;52.236;-0.892;2022-09-27T00:47:26;99531.49;;;9.89;74.02
62928;BME280;51070;52.236;-0.892;2022-09-27T00:50:10;99528.15;;;9.86;73.89
62928;BME280;51070;52.236;-0.892;2022-09-27T00:53:25;99525.67;;;9.82;73.64
62928;BME280;51070;52.236;-0.892;2022-09-27T00:55:35;99525.20;;;9.74;73.63
62928;BME280;51070;52.236;-0.892;2022-09-27T00:58:03;99524.23;;;9.67;73.91
62928;BME280;51070;52.236;-0.892;2022-09-27T01:00:29;99525.17;;;9.62;73.81
62928;BME280;51070;52.236;-0.892;2022-09-27T01:02:56;99528.37;;;9.57;74.16
62928;BME280;51070;52.236;-0.892;2022-09-27T01:05:23;99525.17;;;9.52;74.47
62928;BME280;51070;52.236;-0.892;2022-09-27T01:07:50;99524.80;;;9.49;74.66
62928;BME280;51070;52.236;-0.892;2022-09-27T01:10:16;99525.61;;;9.47;74.61
62928;BME280;51070;52.236;-0.892;2022-09-27T01:13:18;99527.31;;;9.46;74.50
62928;BME280;51070;52.236;-0.892;2022-09-27T01:15:57;99537.80;;;9.45;74.88
62928;BME280;51070;52.236;-0.892;2022-09-27T01:18:40;99542.61;;;9.43;74.92
62928;BME280;51070;52.236;-0.892;2022-09-27T01:29:33;99523.14;;;9.25;75.36
62928;BME280;51070;52.236;-0.892;2022-09-27T01:32:21;99525.70;;;9.23;75.16
62928;BME280;51070;52.236;-0.892;2022-09-27T01:35:06;99521.34;;;9.21;75.11
62928;BME280;51070;52.236;-0.892;2022-09-27T01:37:49;99524.41;;;9.19;75.07
62928;BME280;51070;52.236;-0.892;2022-09-27T01:42:56;99523.85;;;9.18;75.00
62928;BME280;51070;52.236;-0.892;2022-09-27T01:45:36;99523.18;;;9.17;74.95
62928;BME280;51070;52.236;-0.892;2022-09-27T01:48:23;99520.42;;;9.17;75.14
62928;BME280;51070;52.236;-0.892;2022-09-27T01:50:55;99510.55;;;9.15;74.73
62928;BME280;51070;52.236;-0.892;2022-09-27T01:53:34;99513.55;;;9.10;74.84
62928;BME280;51070;52.236;-0.892;2022-09-27T01:56:03;99514.49;;;9.05;74.99
62928;BME280;51070;52.236;-0.892;2022-09-27T01:58:40;99509.23;;;9.00;74.99
62928;BME280;51070;52.236;-0.892;2022-09-27T02:01:07;99511.58;;;8.97;75.06
62928;BME280;51070;52.236;-0.892;2022-09-27T02:03:39;99511.39;;;8.96;75.10
62928;BME280;51070;52.236;-0.892;2022-09-27T02:06:14;99507.58;;;8.95;75.11
62928;BME280;51070;52.236;-0.892;2022-09-27T02:11:25;99512.39;;;8.94;75.26
62928;BME280;51070;52.236;-0.892;2022-09-27T02:21:55;99505.42;;;8.81;75.61
62928;BME280;51070;52.236;-0.892;2022-09-27T02:24:31;99504.52;;;8.80;75.65
62928;BME280;51070;52.236;-0.892;2022-09-27T02:27:10;99499.98;;;8.77;75.76
62928;BME280;51070;52.236;-0.892;2022-09-27T02:29:42;99493.42;;;8.76;75.71
62928;BME280;51070;52.236;-0.892;2022-09-27T02:32:10;99491.52;;;8.75;75.74
62928;BME280;51070;52.236;-0.892;2022-09-27T02:34:37;99495.48;;;8.76;75.78
62928;BME280;51070;52.236;-0.892;2022-09-27T02:37:05;99489.77;;;8.74;75.72
62928;BME280;51070;52.236;-0.892;2022-09-27T02:39:30;99488.70;;;8.72;75.62
62928;BME280;51070;52.236;-0.892;2022-09-27T02:41:56;99492.11;;;8.71;75.63
62928;BME280;51070;52.236;-0.892;2022-09-27T02:44:23;99487.26;;;8.69;75.70
62928;BME280;51070;52.236;-0.892;2022-09-27T02:49:51;99483.02;;;8.64;75.51
62928;BME280;51070;52.236;-0.892;2022-09-27T02:57:29;99481.82;;;8.72;75.60
62928;BME280;51070;52.236;-0.892;2022-09-27T03:00:08;99484.99;;;8.77;75.45
62928;BME280;51070;52.236;-0.892;2022-09-27T03:03:01;99482.65;;;8.80;75.15
62928;BME280;51070;52.236;-0.892;2022-09-27T03:05:34;99474.77;;;8.82;74.93
62928;BME280;51070;52.236;-0.892;2022-09-27T03:08:02;99474.45;;;8.83;74.96
62928;BME280;51070;52.236;-0.892;2022-09-27T03:10:29;99469.82;;;8.83;74.88
62928;BME280;51070;52.236;-0.892;2022-09-27T03:12:55;99464.95;;;8.82;75.01
62928;BME280;51070;52.236;-0.892;2022-09-27T03:15:23;99463.35;;;8.79;75.00
62928;BME280;51070;52.236;-0.892;2022-09-27T03:17:48;99461.92;;;8.77;74.92
62928;BME280;51070;52.236;-0.892;2022-09-27T03:20:14;99466.19;;;8.75;74.87
62928;BME280;51070;52.236;-0.892;2022-09-27T03:22:39;99469.26;;;8.73;74.91
62928;BME280;51070;52.236;-0.892;2022-09-27T03:25:05;99470.76;;;8.71;75.09
62928;BME280;51070;52.236;-0.892;2022-09-27T03:27:31;99468.02;;;8.71;75.10
62928;BME280;51070;52.236;-0.892;2022-09-27T03:29:57;99466.86;;;8.73;75.11
62928;BME280;51070;52.236;-0.892;2022-09-27T03:32:24;99462.06;;;8.75;75.15
62928;BME280;51070;52.236;-0.892;2022-09-27T03:34:50;99466.29;;;8.79;75.02
62928;BME280;51070;52.236;-0.892;2022-09-27T03:37:16;99465.42;;;8.80;75.08
62928;BME280;51070;52.236;-0.892;2022-09-27T03:39:41;99463.38;;;8.81;74.81
62928;BME280;51070;52.236;-0.892;2022-09-27T03:42:06;99464.04;;;8.80;74.84
62928;BME280;51070;52.236;-0.892;2022-09-27T03:44:32;99460.41;;;8.79;74.94
62928;BME280;51070;52.236;-0.892;2022-09-27T03:46:58;99458.34;;;8.78;74.93
62928;BME280;51070;52.236;-0.892;2022-09-27T03:49:23;99456.95;;;8.78;74.87
62928;BME280;51070;52.236;-0.892;2022-09-27T03:51:49;99452.16;;;8.79;75.12
62928;BME280;51070;52.236;-0.892;2022-09-27T03:54:14;99449.41;;;8.81;74.88
62928;BME280;51070;52.236;-0.892;2022-09-27T03:56:40;99450.14;;;8.82;74.90
62928;BME280;51070;52.236;-0.892;2022-09-27T03:59:05;99446.91;;;8.84;75.06
62928;BME280;51070;52.236;-0.892;2022-09-27T04:01:31;99444.17;;;8.86;75.32
62928;BME280;51070;52.236;-0.892;2022-09-27T04:03:56;99446.45;;;8.88;75.26
62928;BME280;51070;52.236;-0.892;2022-09-27T04:06:21;99440.98;;;8.90;75.25
62928;BME280;51070;52.236;-0.892;2022-09-27T04:08:48;99443.41;;;8.92;75.18
62928;BME280;51070;52.236;-0.892;2022-09-27T04:11:13;99445.15;;;8.92;75.40
62928;BME280;51070;52.236;-0.892;2022-09-27T04:13:40;99442.42;;;8.94;75.24
62928;BME280;51070;52.236;-0.892;2022-09-27T04:16:05;99441.44;;;8.96;75.51
62928;BME280;51070;52.236;-0.892;2022-09-27T04:18:32;99437.70;;;8.99;75.31
62928;BME280;51070;52.236;-0.892;2022-09-27T04:20:57;99428.43;;;9.01;75.51
62928;BME280;51070;52.236;-0.892;2022-09-27T04:23:23;99424.34;;;9.04;75.45
62928;BME280;51070;52.236;-0.892;2022-09-27T04:25:49;99419.73;;;9.06;75.51
62928;BME280;51070;52.236;-0.892;2022-09-27T04:28:14;99419.96;;;9.10;75.34
62928;BME280;51070;52.236;-0.892;2022-09-27T04:30:40;99416.05;;;9.11;75.38
62928;BME280;51070;52.236;-0.892;2022-09-27T04:33:06;99411.22;;;9.12;75.31
62928;BME280;51070;52.236;-0.892;2022-09-27T04:35:31;99405.88;;;9.12;75.36
62928;BME280;51070;52.236;-0.892;2022-09-27T04:38:15;99403.45;;;9.11;75.35
62928;BME280;51070;52.236;-0.892;2022-09-27T04:40:40;99403.07;;;9.09;75.30
62928;BME280;51070;52.236;-0.892;2022-09-27T04:43:06;99403.42;;;9.10;75.48
62928;BME280;51070;52.236;-0.892;2022-09-27T04:45:31;99401.55;;;9.11;75.29
62928;BME280;51070;52.236;-0.892;2022-09-27T04:47:57;99397.09;;;9.11;75.59
62928;BME280;51070;52.236;-0.892;2022-09-27T04:50:23;99390.71;;;9.13;75.48
62928;BME280;51070;52.236;-0.892;2022-09-27T04:52:50;99390.23;;;9.15;75.28
62928;BME280;51070;52.236;-0.892;2022-09-27T04:55:17;99390.05;;;9.14;75.51
62928;BME280;51070;52.236;-0.892;2022-09-27T04:57:42;99390.38;;;9.14;75.42
62928;BME280;51070;52.236;-0.892;2022-09-27T05:00:09;99391.40;;;9.13;75.38
62928;BME280;51070;52.236;-0.892;2022-09-27T05:02:34;99390.02;;;9.12;75.18
62928;BME280;51070;52.236;-0.892;2022-09-27T05:04:59;99390.37;;;9.11;75.27
62928;BME280;51070;52.236;-0.892;2022-09-27T05:07:26;99386.71;;;9.10;75.49
62928;BME280;51070;52.236;-0.892;2022-09-27T05:09:51;99383.98;;;9.11;75.50
62928;BME280;51070;52.236;-0.892;2022-09-27T05:12:18;99383.98;;;9.10;75.49
62928;BME280;51070;52.236;-0.892;2022-09-27T05:14:43;99383.96;;;9.10;75.46
62928;BME280;51070;52.236;-0.892;2022-09-27T05:17:09;99390.36;;;9.11;75.50
62928;BME280;51070;52.236;-0.892;2022-09-27T05:19:34;99392.25;;;9.12;75.51
62928;BME280;51070;52.236;-0.892;2022-09-27T05:22:00;99393.12;;;9.13;75.34
62928;BME280;51070;52.236;-0.892;2022-09-27T05:24:26;99390.37;;;9.13;75.42
62928;BME280;51070;52.236;-0.892;2022-09-27T05:26:57;99385.54;;;9.13;75.37
62928;BME280;51070;52.236;-0.892;2022-09-27T05:29:23;99385.55;;;9.13;75.81
62928;BME280;51070;52.236;-0.892;2022-09-27T05:31:49;99390.77;;;9.15;75.64
62928;BME280;51070;52.236;-0.892;2022-09-27T05:34:15;99394.92;;;9.18;75.50
62928;BME280;51070;52.236;-0.892;2022-09-27T05:36:42;99394.95;;;9.19;75.70
62928;BME280;51070;52.236;-0.892;2022-09-27T05:39:07;99391.16;;;9.19;75.92
62928;BME280;51070;52.236;-0.892;2022-09-27T05:41:33;99394.11;;;9.20;75.81
62928;BME280;51070;52.236;-0.892;2022-09-27T05:43:58;99391.85;;;9.19;75.65
62928;BME280;51070;52.236;-0.892;2022-09-27T05:46:24;99392.36;;;9.18;75.80
62928;BME280;51070;52.236;-0.892;2022-09-27T05:48:49;99393.03;;;9.16;75.82
62928;BME280;51070;52.236;-0.892;2022-09-27T05:51:15;99397.69;;;9.17;75.73
62928;BME280;51070;52.236;-0.892;2022-09-27T05:53:41;99395.63;;;9.17;75.81
62928;BME280;51070;52.236;-0.892;2022-09-27T05:56:06;99399.41;;;9.18;75.86
62928;BME280;51070;52.236;-0.892;2022-09-27T05:58:32;99402.02;;;9.19;75.83
62928;BME280;51070;52.236;-0.892;2022-09-27T06:00:58;99401.01;;;9.20;75.79
62928;BME280;51070;52.236;-0.892;2022-09-27T06:03:24;99399.30;;;9.20;75.69
62928;BME280;51070;52.236;-0.892;2022-09-27T06:05:50;99396.04;;;9.21;75.67
62928;BME280;51070;52.236;-0.892;2022-09-27T06:08:15;99403.62;;;9.21;75.50
62928;BME280;51070;52.236;-0.892;2022-09-27T06:10:40;99398.10;;;9.20;75.74
62928;BME280;51070;52.236;-0.892;2022-09-27T06:13:11;99398.79;;;9.21;75.63
62928;BME280;51070;52.236;-0.892;2022-09-27T06:15:38;99397.10;;;9.23;75.85
62928;BME280;51070;52.236;-0.892;2022-09-27T06:18:12;99394.39;;;9.26;76.00
62928;BME280;51070;52.236;-0.892;2022-09-27T06:20:39;99390.11;;;9.28;76.13
62928;BME280;51070;52.236;-0.892;2022-09-27T06:23:10;99389.95;;;9.29;76.62
62928;BME280;51070;52.236;-0.892;2022-09-27T06:25:37;99386.36;;;9.31;76.76
62928;BME280;51070;52.236;-0.892;2022-09-27T06:28:03;99381.23;;;9.33;76.81
62928;BME280;51070;52.236;-0.892;2022-09-27T06:30:30;99380.54;;;9.33;77.06
62928;BME280;51070;52.236;-0.892;2022-09-27T06:33:00;99377.25;;;9.32;77.25
62928;BME280;51070;52.236;-0.892;2022-09-27T06:35:27;99381.55;;;9.32;77.34
62928;BME280;51070;52.236;-0.892;2022-09-27T06:37:53;99386.00;;;9.30;77.53
62928;BME280;51070;52.236;-0.892;2022-09-27T06:40:20;99384.96;;;9.30;77.81
62928;BME280;51070;52.236;-0.892;2022-09-27T06:42:47;99385.30;;;9.30;77.83
62928;BME280;51070;52.236;-0.892;2022-09-27T06:45:13;99381.69;;;9.30;77.92
62928;BME280;51070;52.236;-0.892;2022-09-27T06:47:39;99376.70;;;9.31;77.87
62928;BME280;51070;52.236;-0.892;2022-09-27T06:50:05;99378.30;;;9.34;78.05
62928;BME280;51070;52.236;-0.892;2022-09-27T06:52:32;99375.96;;;9.38;77.99
62928;BME280;51070;52.236;-0.892;2022-09-27T06:54:57;99372.73;;;9.41;78.19
62928;BME280;51070;52.236;-0.892;2022-09-27T06:57:23;99376.27;;;9.47;77.80
62928;BME280;51070;52.236;-0.892;2022-09-27T07:00:11;99376.31;;;9.50;78.03
62928;BME280;51070;52.236;-0.892;2022-09-27T07:02:51;99375.34;;;9.53;78.20
62928;BME280;51070;52.236;-0.892;2022-09-27T07:05:17;99369.49;;;9.55;78.09
62928;BME280;51070;52.236;-0.892;2022-09-27T07:07:43;99365.21;;;9.57;77.90
62928;BME280;51070;52.236;-0.892;2022-09-27T07:10:10;99361.46;;;9.60;77.93
62928;BME280;51070;52.236;-0.892;2022-09-27T07:12:36;99357.88;;;9.63;78.07
62928;BME280;51070;52.236;-0.892;2022-09-27T07:15:02;99360.37;;;9.68;77.89
62928;BME280;51070;52.236;-0.892;2022-09-27T07:17:27;99356.83;;;9.74;77.72
62928;BME280;51070;52.236;-0.892;2022-09-27T07:19:54;99349.02;;;9.84;77.78
62928;BME280;51070;52.236;-0.892;2022-09-27T07:22:20;99345.00;;;9.93;77.88
62928;BME280;51070;52.236;-0.892;2022-09-27T07:24:45;99340.48;;;10.03;77.78
62928;BME280;51070;52.236;-0.892;2022-09-27T07:27:11;99338.73;;;10.15;77.36
62928;BME280;51070;52.236;-0.892;2022-09-27T07:29:36;99330.80;;;10.30;77.15
62928;BME280;51070;52.236;-0.892;2022-09-27T07:32:02;99327.67;;;10.43;77.03
62928;BME280;51070;52.236;-0.892;2022-09-27T07:34:28;99329.66;;;10.51;76.87
62928;BME280;51070;52.236;-0.892;2022-09-27T07:36:58;99328.06;;;10.48;77.02
62928;BME280;51070;52.236;-0.892;2022-09-27T07:39:23;99325.47;;;10.48;77.21
62928;BME280;51070;52.236;-0.892;2022-09-27T07:41:49;99326.32;;;10.46;77.31
62928;BME280;51070;52.236;-0.892;2022-09-27T07:44:14;99328.34;;;10.41;76.96
62928;BME280;51070;52.236;-0.892;2022-09-27T07:46:40;99325.89;;;10.39;77.25
62928;BME280;51070;52.236;-0.892;2022-09-27T07:49:07;99323.11;;;10.38;77.41
62928;BME280;51070;52.236;-0.892;2022-09-27T07:51:32;99318.95;;;10.36;77.29
62928;BME280;51070;52.236;-0.892;2022-09-27T07:53:58;99316.33;;;10.33;77.48
62928;BME280;51070;52.236;-0.892;2022-09-27T07:56:26;99314.24;;;10.32;77.53
62928;BME280;51070;52.236;-0.892;2022-09-27T07:58:51;99311.45;;;10.27;77.59
62928;BME280;51070;52.236;-0.892;2022-09-27T08:01:17;99306.54;;;10.21;77.60
62928;BME280;51070;52.236;-0.892;2022-09-27T08:03:43;99303.20;;;10.17;77.82
62928;BME280;51070;52.236;-0.892;2022-09-27T08:06:09;99298.23;;;10.19;77.76
62928;BME280;51070;52.236;-0.892;2022-09-27T08:08:35;99298.37;;;10.32;77.78
62928;BME280;51070;52.236;-0.892;2022-09-27T08:11:09;99297.06;;;10.56;77.71
62928;BME280;51070;52.236;-0.892;2022-09-27T08:13:36;99296.94;;;10.81;76.85
62928;BME280;51070;52.236;-0.892;2022-09-27T08:16:04;99296.01;;;10.95;76.45
62928;BME280;51070;52.236;-0.892;2022-09-27T08:18:30;99295.73;;;11.04;76.11
62928;BME280;51070;52.236;-0.892;2022-09-27T08:21:02;99294.37;;;11.05;76.13
62928;BME280;51070;52.236;-0.892;2022-09-27T08:23:31;99293.63;;;10.99;75.63
62928;BME280;51070;52.236;-0.892;2022-09-27T08:25:59;99291.91;;;11.01;75.68
62928;BME280;51070;52.236;-0.892;2022-09-27T08:28:30;99294.70;;;11.28;74.99
62928;BME280;51070;52.236;-0.892;2022-09-27T08:30:58;99298.15;;;11.55;74.33
62928;BME280;51070;52.236;-0.892;2022-09-27T08:33:24;99304.45;;;11.68;74.04
62928;BME280;51070;52.236;-0.892;2022-09-27T08:35:51;99307.65;;;11.79;73.68
62928;BME280;51070;52.236;-0.892;2022-09-27T08:38:17;99307.20;;;11.92;73.32
62928;BME280;51070;52.236;-0.892;2022-09-27T08:46:04;99302.10;;;12.22;72.33
62928;BME280;51070;52.236;-0.892;2022-09-27T08:48:33;99308.66;;;12.14;71.97
62928;BME280;51070;52.236;-0.892;2022-09-27T08:51:02;99311.59;;;12.09;71.91
62928;BME280;51070;52.236;-0.892;2022-09-27T08:53:46;99309.36;;;12.12;71.71
62928;BME280;51070;52.236;-0.892;2022-09-27T08:56:14;99305.39;;;12.14;71.58
62928;BME280;51070;52.236;-0.892;2022-09-27T08:59:00;99304.88;;;12.18;71.14
62928;BME280;51070;52.236;-0.892;2022-09-27T09:01:26;99300.22;;;12.25;70.88
62928;BME280;51070;52.236;-0.892;2022-09-27T09:03:55;99304.38;;;12.30;70.36
62928;BME280;51070;52.236;-0.892;2022-09-27T09:06:27;99306.11;;;12.31;70.44
62928;BME280;51070;52.236;-0.892;2022-09-27T09:12:28;99309.60;;;12.36;70.25
62928;BME280;51070;52.236;-0.892;2022-09-27T09:21:34;99294.58;;;12.82;68.96
62928;BME280;51070;52.236;-0.892;2022-09-27T09:24:10;99299.11;;;13.11;67.81
62928;BME280;51070;52.236;-0.892;2022-09-27T09:27:04;99294.75;;;13.42;67.19
62928;BME280;51070;52.236;-0.892;2022-09-27T09:30:02;99294.55;;;13.54;66.42
62928;BME280;51070;52.236;-0.892;2022-09-27T09:35:24;99302.21;;;13.48;66.45
62928;BME280;51070;52.236;-0.892;2022-09-27T09:37:54;99305.16;;;13.48;65.72
62928;BME280;51070;52.236;-0.892;2022-09-27T09:43:19;99298.92;;;13.33;66.19
62928;BME280;51070;52.236;-0.892;2022-09-27T09:46:01;99290.61;;;13.28;66.42
62928;BME280;51070;52.236;-0.892;2022-09-27T09:51:11;99289.20;;;13.41;66.14
62928;BME280;51070;52.236;-0.892;2022-09-27T09:56:21;99284.86;;;13.35;65.96
62928;BME280;51070;52.236;-0.892;2022-09-27T09:58:56;99282.79;;;13.35;65.91
62928;BME280;51070;52.236;-0.892;2022-09-27T10:01:32;99281.58;;;13.38;65.77
62928;BME280;51070;52.236;-0.892;2022-09-27T10:03:59;99277.92;;;13.38;65.59
62928;BME280;51070;52.236;-0.892;2022-09-27T10:06:25;99272.02;;;13.38;65.70
62928;BME280;51070;52.236;-0.892;2022-09-27T10:08:53;99273.41;;;13.42;66.06
62928;BME280;51070;52.236;-0.892;2022-09-27T10:11:36;99274.29;;;13.43;65.82
62928;BME280;51070;52.236;-0.892;2022-09-27T10:14:11;99272.69;;;13.45;65.78
62928;BME280;51070;52.236;-0.892;2022-09-27T10:16:39;99266.10;;;13.46;65.29
62928;BME280;51070;52.236;-0.892;2022-09-27T10:19:08;99261.27;;;13.43;65.41
62928;BME280;51070;52.236;-0.892;2022-09-27T10:21:37;99259.02;;;13.34;65.92
62928;BME280;51070;52.236;-0.892;2022-09-27T10:24:11;99251.40;;;13.30;65.93
62928;BME280;51070;52.236;-0.892;2022-09-27T10:26:38;99257.14;;;13.27;66.18
62928;BME280;51070;52.236;-0.892;2022-09-27T10:29:33;99260.27;;;13.21;65.92
62928;BME280;51070;52.236;-0.892;2022-09-27T10:32:01;99272.91;;;13.04;66.07
62928;BME280;51070;52.236;-0.892;2022-09-27T10:34:35;99280.38;;;12.81;65.44
62928;BME280;51070;52.236;-0.892;2022-09-27T10:39:37;99286.10;;;11.99;68.93
62928;BME280;51070;52.236;-0.892;2022-09-27T10:42:20;99282.16;;;11.70;70.44
62928;BME280;51070;52.236;-0.892;2022-09-27T10:44:46;99283.25;;;11.51;71.42
62928;BME280;51070;52.236;-0.892;2022-09-27T10:47:16;99278.37;;;11.45;72.26
62928;BME280;51070;52.236;-0.892;2022-09-27T10:49:47;99280.56;;;11.34;72.88
62928;BME280;51070;52.236;-0.892;2022-09-27T10:54:58;99268.89;;;11.20;73.86
62928;BME280;51070;52.236;-0.892;2022-09-27T10:57:27;99259.70;;;11.17;74.04
62928;BME280;51070;52.236;-0.892;2022-09-27T11:00:04;99253.84;;;11.21;74.46
62928;BME280;51070;52.236;-0.892;2022-09-27T11:02:35;99247.84;;;11.29;74.91
62928;BME280;51070;52.236;-0.892;2022-09-27T11:05:11;99246.83;;;11.35;74.18
62928;BME280;51070;52.236;-0.892;2022-09-27T11:07:55;99249.13;;;11.41;73.92
62928;BME280;51070;52.236;-0.892;2022-09-27T11:10:35;99246.09;;;11.56;74.14
62928;BME280;51070;52.236;-0.892;2022-09-27T11:26:58;99219.85;;;12.25;73.31
62928;BME280;51070;52.236;-0.892;2022-09-27T11:35:13;99210.78;;;13.34;71.51
62928;BME280;51070;52.236;-0.892;2022-09-27T11:38:01;99211.91;;;13.59;70.26
62928;BME280;51070;52.236;-0.892;2022-09-27T11:46:34;99206.14;;;13.72;68.61
62928;BME280;51070;52.236;-0.892;2022-09-27T11:52:04;99201.76;;;13.80;67.47
62928;BME280;51070;52.236;-0.892;2022-09-27T11:55:11;99199.86;;;13.78;66.88
62928;BME280;51070;52.236;-0.892;2022-09-27T12:09:15;99206.55;;;14.72;65.56
62928;BME280;51070;52.236;-0.892;2022-09-27T12:14:46;99184.32;;;15.53;63.37
62928;BME280;51070;52.236;-0.892;2022-09-27T12:17:23;99166.83;;;15.74;62.53
62928;BME280;51070;52.236;-0.892;2022-09-27T12:20:02;99162.05;;;15.79;61.01
62928;BME280;51070;52.236;-0.892;2022-09-27T12:22:37;99160.53;;;15.89;59.62
62928;BME280;51070;52.236;-0.892;2022-09-27T12:25:04;99163.27;;;15.80;57.59
62928;BME280;51070;52.236;-0.892;2022-09-27T12:27:49;99161.15;;;15.69;58.38
62928;BME280;51070;52.236;-0.892;2022-09-27T12:30:15;99168.19;;;15.63;57.46
62928;BME280;51070;52.236;-0.892;2022-09-27T12:32:56;99163.22;;;15.58;56.90
62928;BME280;51070;52.236;-0.892;2022-09-27T12:35:31;99164.36;;;15.64;57.39
62928;BME280;51070;52.236;-0.892;2022-09-27T12:38:11;99161.20;;;15.65;56.39
62928;BME280;51070;52.236;-0.892;2022-09-27T12:40:50;99163.89;;;15.60;56.38
62928;BME280;51070;52.236;-0.892;2022-09-27T12:43:22;99168.84;;;15.66;55.93
62928;BME280;51070;52.236;-0.892;2022-09-27T12:52:04;99160.67;;;16.03;54.75
62928;BME280;51070;52.236;-0.892;2022-09-27T12:54:53;99154.27;;;16.11;54.05
62928;BME280;51070;52.236;-0.892;2022-09-27T13:00:18;99144.40;;;16.40;53.27
62928;BME280;51070;52.236;-0.892;2022-09-27T13:11:10;99148.63;;;15.93;52.90
62928;BME280;51070;52.236;-0.892;2022-09-27T13:13:41;99144.41;;;15.58;52.79
62928;BME280;51070;52.236;-0.892;2022-09-27T13:16:07;99137.45;;;15.56;53.27
62928;BME280;51070;52.236;-0.892;2022-09-27T13:21:04;99136.38;;;15.43;54.05
62928;BME280;51070;52.236;-0.892;2022-09-27T13:26:03;99129.61;;;15.13;54.68
62928;BME280;51070;52.236;-0.892;2022-09-27T13:31:12;99135.73;;;14.78;55.58
62928;BME280;51070;52.236;-0.892;2022-09-27T13:33:51;99144.43;;;14.58;56.80
62928;BME280;51070;52.236;-0.892;2022-09-27T13:36:26;99145.36;;;14.28;58.05
62928;BME280;51070;52.236;-0.892;2022-09-27T13:46:45;99130.06;;;13.43;60.31
62928;BME280;51070;52.236;-0.892;2022-09-27T13:49:27;99130.12;;;13.34;60.64
62928;BME280;51070;52.236;-0.892;2022-09-27T13:52:00;99125.11;;;13.27;60.75
62928;BME280;51070;52.236;-0.892;2022-09-27T13:54:54;99120.80;;;13.20;61.09
62928;BME280;51070;52.236;-0.892;2022-09-27T13:57:54;99119.43;;;13.13;61.62
62928;BME280;51070;52.236;-0.892;2022-09-27T14:00:38;99126.02;;;13.09;61.57
62928;BME280;51070;52.236;-0.892;2022-09-27T14:03:16;99124.64;;;13.14;61.55
62928;BME280;51070;52.236;-0.892;2022-09-27T14:05:51;99130.34;;;13.21;61.39
62928;BME280;51070;52.236;-0.892;2022-09-27T14:10:57;99139.54;;;13.20;61.27
62928;BME280;51070;52.236;-0.892;2022-09-27T14:13:25;99140.23;;;13.18;61.85
62928;BME280;51070;52.236;-0.892;2022-09-27T14:15:53;99142.15;;;13.17;62.41
62928;BME280;51070;52.236;-0.892;2022-09-27T14:18:20;99141.97;;;13.18;62.96
62928;BME280;51070;52.236;-0.892;2022-09-27T14:20:49;99137.65;;;13.16;63.13
62928;BME280;51070;52.236;-0.892;2022-09-27T14:23:24;99138.68;;;13.12;63.42
62928;BME280;51070;52.236;-0.892;2022-09-27T14:25:52;99136.60;;;13.13;63.00
62928;BME280;51070;52.236;-0.892;2022-09-27T14:28:24;99129.67;;;13.13;62.24
62928;BME280;51070;52.236;-0.892;2022-09-27T14:31:12;99127.23;;;13.16;62.54
62928;BME280;51070;52.236;-0.892;2022-09-27T14:33:38;99127.58;;;13.17;62.55
62928;BME280;51070;52.236;-0.892;2022-09-27T14:36:06;99135.55;;;13.17;62.49
62928;BME280;51070;52.236;-0.892;2022-09-27T14:38:51;99130.36;;;13.14;62.19
62928;BME280;51070;52.236;-0.892;2022-09-27T14:41:17;99131.42;;;13.12;61.84
62928;BME280;51070;52.236;-0.892;2022-09-27T14:43:45;99131.73;;;13.11;61.68
62928;BME280;51070;52.236;-0.892;2022-09-27T14:46:28;99128.81;;;13.13;61.30
62928;BME280;51070;52.236;-0.892;2022-09-27T14:48:54;99126.71;;;13.17;61.28
62928;BME280;51070;52.236;-0.892;2022-09-27T14:51:29;99128.05;;;13.33;61.23
62928;BME280;51070;52.236;-0.892;2022-09-27T14:53:58;99123.77;;;13.55;60.60
62928;BME280;51070;52.236;-0.892;2022-09-27T14:56:32;99120.95;;;13.63;59.96
62928;BME280;51070;52.236;-0.892;2022-09-27T14:59:11;99129.07;;;13.67;59.85
62928;BME280;51070;52.236;-0.892;2022-09-27T15:01:38;99124.03;;;13.71;59.95
62928;BME280;51070;52.236;-0.892;2022-09-27T15:04:06;99125.23;;;13.72;59.42
62928;BME280;51070;52.236;-0.892;2022-09-27T15:06:34;99122.67;;;13.67;59.48
62928;BME280;51070;52.236;-0.892;2022-09-27T15:09:02;99117.34;;;13.55;59.17
62928;BME280;51070;52.236;-0.892;2022-09-27T15:11:29;99121.91;;;13.45;59.48
62928;BME280;51070;52.236;-0.892;2022-09-27T15:13:59;99121.08;;;13.36;59.55
62928;BME280;51070;52.236;-0.892;2022-09-27T15:16:29;99120.77;;;13.26;59.36
62928;BME280;51070;52.236;-0.892;2022-09-27T15:19:01;99122.55;;;13.13;59.66
62928;BME280;51070;52.236;-0.892;2022-09-27T15:21:33;99117.52;;;13.09;59.70
62928;BME280;51070;52.236;-0.892;2022-09-27T15:23:59;99118.02;;;13.19;59.67
62928;BME280;51070;52.236;-0.892;2022-09-27T15:26:59;99118.57;;;13.17;59.67
62928;BME280;51070;52.236;-0.892;2022-09-27T15:29:24;99117.85;;;13.22;59.40
62928;BME280;51070;52.236;-0.892;2022-09-27T15:32:03;99118.54;;;13.22;59.28
62928;BME280;51070;52.236;-0.892;2022-09-27T15:34:30;99115.08;;;13.22;59.27